Friday, April 20, 2018, 3:47 PM EDT
Back to Local

KBVY, Beverly Municipal Airport

Location: Danvers, MA, United States Lat: 42.583
Local Time: 3:47 PM EDT (19:47 GMT) Lon: -70.917
Time Zone: US/Eastern Elev: 108 ft

Show me the last for .
Show Decoded

2018-04-20 14:53 METAR KBVY 201853Z 32011G22KT 290V350 10SM BKN055 11/M02 A3003 RMK AO2 PK WND
                 32029/1840 SLP165 T01061022 =
2018-04-20 13:53 METAR KBVY 201753Z 31013G23KT 10SM SCT050 11/M02 A3002 RMK AO2 PK WND 34029/1707
                 SLP163 T01111017 10111 20039 53015 =
2018-04-20 12:53 METAR KBVY 201653Z 32012G22KT 10SM BKN048 BKN075 11/M02 A3000 RMK AO2 PK WND
                 30027/1631 SLP155 T01061017 =
2018-04-20 11:53 METAR KBVY 201553Z 31012G25KT 10SM SCT047 09/M02 A2999 RMK AO2 PK WND 31028/1536
                 SLP150 T00941017 =
2018-04-20 10:53 METAR KBVY 201453Z 33017G22KT 10SM CLR 08/M02 A2998 RMK AO2 PK WND 32026/1416
                 SLP147 T00831022 51017 =
2018-04-20 09:53 METAR KBVY 201353Z 30017G25KT 10SM FEW039 07/M03 A2996 RMK AO2 SLP142 T00671028
                 =
2018-04-20 08:53 METAR KBVY 201253Z 32019G26KT 10SM BKN070 06/M02 A2994 RMK AO2 PK WND 29026/1247
                 SLP136 T00561022 =
2018-04-20 07:53 METAR KBVY 201153Z 30016G22KT 10SM FEW090 04/M03 A2993 RMK AO2 SLP130 70012
                 T00391028 10039 20022 51022 =
2018-04-20 06:53 METAR KBVY 201053Z 28010KT 10SM OVC080 03/M03 A2992 RMK AO2 SLP127 T00281028 =
2018-04-20 05:53 METAR KBVY 200953Z AUTO 29010G16KT 10SM BKN070 02/M03 A2989 RMK AO2 SLP117
                 T00221028 =
2018-04-20 04:53 METAR KBVY 200853Z AUTO 30010KT 10SM CLR 03/M02 A2986 RMK AO2 SLP108 T00281022
                 51012 =
2018-04-20 03:53 METAR KBVY 200753Z AUTO 31008G17KT 10SM OVC050 03/M02 A2985 RMK AO2 SLP104
                 T00281017 =
2018-04-20 02:53 METAR KBVY 200653Z AUTO 31013G19KT 10SM BKN032 OVC040 03/M02 A2984 RMK AO2
                 SLP102 T00331017 =
2018-04-20 01:53 METAR KBVY 200553Z AUTO 30012KT 10SM OVC065 04/M02 A2983 RMK AO2 SLP097
                 T00391022 10056 20039 53011 =
2018-04-20 00:53 METAR KBVY 200453Z AUTO 30010G19KT 10SM OVC090 04/M02 A2982 RMK AO2 SLP093
                 T00441022 400720011 =
2018-04-19 23:53 METAR KBVY 200353Z AUTO 32010G21KT 10SM BKN085 OVC110 04/M02 A2980 RMK AO2
                 SLP087 T00441022 =
2018-04-19 22:53 METAR KBVY 200253Z AUTO 32010KT 10SM OVC100 05/M02 A2979 RMK AO2 SLP085
                 T00501017 51018 =
2018-04-19 21:53 METAR KBVY 200153Z AUTO 30009KT 10SM OVC090 06/01 A2978 RMK AO2 SLP082 T00560006
                 =
2018-04-19 20:53 METAR KBVY 200053Z AUTO 30008KT 10SM SCT037 BKN048 OVC095 06/02 A2976 RMK AO2
                 SLP076 T00560022 =
2018-04-19 19:53 METAR KBVY 192353Z 28005KT 10SM OVC075 06/03 A2974 RMK AO2 SLP067 LAST 60000
                 T00560033 10072 20050 53015 =
2018-04-19 18:53 METAR KBVY 192253Z 27005KT 10SM FEW037 SCT055 OVC070 06/03 A2971 RMK AO2
                 RAB19E37 SLP058 P0000 T00560033 =
2018-04-19 18:40 METAR KBVY 192240Z 30003KT 10SM SCT020 SCT036 OVC055 06/03 A2971 RMK AO2
                 RAB19E37 P0000 T00560028 =
2018-04-19 18:01 METAR KBVY 192201Z 28007KT 10SM BKN018 OVC065 07/03 A2969 RMK AO2 T00720033 =
2018-04-19 17:53 METAR KBVY 192153Z 27006KT 10SM SCT018 OVC065 07/03 A2970 RMK AO2 SLP054
                 T00670028 =
2018-04-19 16:53 METAR KBVY 192053Z 24008KT 10SM OVC055 06/03 A2970 RMK AO2 RAE1956B32E46 SLP052
                 P0000 60000 T00610033 51011 =
2018-04-19 15:53 METAR KBVY 191953Z 22005KT 10SM -RA OVC065 06/02 A2968 RMK AO2 RAE02B23 SLP048
                 P0000 T00560022 =

Support USWX by starting your Amazon purchase here.